Time;durP1;ratioP1;P1;durP2;ratioP2;P2;SDS_P1;SDS_P2;PMS_P1;PMS_P2;Temp;Humidity;BMP_temperature;BMP_pressure;BME280_temperature;BME280_humidity;BME280_pressure;Samples;Min_cycle;Max_cycle;Signal;HPM_P1;HPM_P2
2024/04/17 00:01:16;;;;;;;2.65;1.40;;;15.90;59.00;;;;;;5379751;26;20222;-75
2024/04/17 00:03:41;;;;;;;4.00;1.67;;;15.90;59.00;;;;;;5379331;26;20277;-73
2024/04/17 00:06:07;;;;;;;2.00;1.25;;;15.90;59.10;;;;;;5378864;26;20262;-74
2024/04/17 00:08:32;;;;;;;3.38;1.27;;;15.80;59.00;;;;;;5379611;26;20273;-74
2024/04/17 00:10:58;;;;;;;3.80;1.48;;;15.80;59.00;;;;;;5380671;26;20217;-74
2024/04/17 00:13:23;;;;;;;3.83;1.67;;;15.90;59.10;;;;;;5382295;26;20326;-74
2024/04/17 00:15:49;;;;;;;2.63;1.20;;;15.80;59.00;;;;;;5382711;26;20288;-77
2024/04/17 00:18:15;;;;;;;2.55;1.50;;;15.80;58.90;;;;;;5383249;26;20276;-78
2024/04/17 00:20:41;;;;;;;2.92;1.17;;;15.80;58.90;;;;;;5381703;26;20293;-76
2024/04/17 00:23:06;;;;;;;3.90;1.58;;;15.80;59.00;;;;;;5383051;26;20264;-74
2024/04/17 00:25:32;;;;;;;5.78;2.03;;;15.80;59.00;;;;;;5382938;26;20293;-73
2024/04/17 00:27:57;;;;;;;2.95;1.23;;;15.80;58.90;;;;;;5381605;26;20260;-74
2024/04/17 00:30:23;;;;;;;3.47;1.20;;;15.80;58.90;;;;;;5382945;26;20585;-75
2024/04/17 00:32:48;;;;;;;2.92;1.40;;;15.80;59.00;;;;;;5382506;26;20685;-74
2024/04/17 00:35:14;;;;;;;3.55;1.48;;;15.80;59.00;;;;;;5382076;26;20565;-76
2024/04/17 00:37:40;;;;;;;2.13;1.20;;;15.70;58.90;;;;;;5382479;26;20319;-76
2024/04/17 00:40:06;;;;;;;3.70;1.67;;;15.70;58.90;;;;;;5382597;26;20221;-77
2024/04/17 00:42:31;;;;;;;3.15;1.67;;;15.80;58.90;;;;;;5381887;26;20222;-78
2024/04/17 00:44:57;;;;;;;3.25;1.40;;;15.80;58.90;;;;;;5382203;26;20264;-74
2024/04/17 00:47:22;;;;;;;4.55;1.42;;;15.70;58.90;;;;;;5382704;26;20260;-75
2024/04/17 00:49:48;;;;;;;3.15;1.55;;;15.70;58.90;;;;;;5381372;26;20323;-75
2024/04/17 00:52:14;;;;;;;3.28;1.45;;;15.70;58.90;;;;;;5382616;26;20571;-76
2024/04/17 00:54:39;;;;;;;3.97;1.83;;;15.70;58.90;;;;;;5351761;26;20277;-77
2024/04/17 00:57:05;;;;;;;4.20;1.88;;;15.70;58.80;;;;;;5381598;26;20573;-75
2024/04/17 00:59:31;;;;;;;2.80;1.67;;;15.70;58.90;;;;;;5382327;26;20225;-77
2024/04/17 01:01:56;;;;;;;2.38;1.20;;;15.70;58.90;;;;;;5381250;26;20752;-75
2024/04/17 01:04:25;;;;;;;2.60;1.27;;;15.70;58.90;;;;;;5382404;26;20268;-75
2024/04/17 01:06:50;;;;;;;2.33;1.45;;;15.70;58.90;;;;;;5381930;26;20300;-75
2024/04/17 01:09:16;;;;;;;2.88;1.73;;;15.70;58.90;;;;;;5350925;26;20230;-75
2024/04/17 01:11:41;;;;;;;3.35;1.25;;;15.70;58.90;;;;;;5381827;26;20663;-75
2024/04/17 01:14:08;;;;;;;3.72;1.30;;;15.70;58.90;;;;;;5382293;26;20221;-73
2024/04/17 01:16:34;;;;;;;3.10;1.48;;;15.70;58.90;;;;;;5381459;26;20234;-79
2024/04/17 01:19:00;;;;;;;2.03;1.33;;;15.70;58.80;;;;;;5382028;26;20671;-77
2024/04/17 01:21:25;;;;;;;3.50;1.50;;;15.60;58.80;;;;;;5381540;26;20344;-76
2024/04/17 01:23:52;;;;;;;4.10;1.88;;;15.70;58.80;;;;;;5380947;26;20229;-73
2024/04/17 01:26:18;;;;;;;2.47;1.30;;;15.60;58.80;;;;;;5382037;26;20846;-74
2024/04/17 01:28:43;;;;;;;3.05;1.63;;;15.60;58.80;;;;;;5381720;26;20225;-73
2024/04/17 01:31:09;;;;;;;2.75;1.27;;;15.60;58.80;;;;;;5381165;26;20222;-74
2024/04/17 01:33:34;;;;;;;4.43;1.73;;;15.60;58.80;;;;;;5381996;26;20226;-77
2024/04/17 01:36:00;;;;;;;3.83;1.73;;;15.60;58.80;;;;;;5381678;26;20424;-76
2024/04/17 01:38:25;;;;;;;3.15;1.60;;;15.60;58.90;;;;;;5381208;26;20221;-75
2024/04/17 01:40:51;;;;;;;2.15;1.08;;;15.60;58.80;;;;;;5381555;26;20221;-79
2024/04/17 01:43:16;;;;;;;4.53;1.52;;;15.60;58.80;;;;;;5381854;26;20641;-76
2024/04/17 01:45:48;;;;;;;1.88;1.25;;;15.60;58.90;;;;;;5380601;26;20221;-75
2024/04/17 01:48:13;;;;;;;3.17;1.38;;;15.60;58.80;;;;;;5381797;26;20264;-75
2024/04/17 01:50:39;;;;;;;5.28;1.40;;;15.60;58.80;;;;;;5381751;26;20700;-76
2024/04/17 01:53:04;;;;;;;2.63;1.40;;;15.60;58.80;;;;;;5380817;26;20221;-76
2024/04/17 01:55:30;;;;;;;3.42;1.80;;;15.60;58.80;;;;;;5381556;26;20227;-75
2024/04/17 01:57:55;;;;;;;5.68;2.08;;;15.60;58.90;;;;;;5381261;26;20264;-75
2024/04/17 02:00:21;;;;;;;2.53;1.35;;;15.60;58.80;;;;;;5380793;26;20332;-77
2024/04/17 02:02:46;;;;;;;1.55;1.10;;;15.60;58.80;;;;;;5381238;26;20260;-73
2024/04/17 02:05:12;;;;;;;3.60;0.98;;;15.60;58.90;;;;;;5380761;26;20253;-74
2024/04/17 02:07:38;;;;;;;2.53;1.25;;;15.60;58.80;;;;;;5381503;26;20318;-75
2024/04/17 02:10:04;;;;;;;2.63;1.20;;;15.60;58.80;;;;;;5381156;26;20292;-74
2024/04/17 02:12:29;;;;;;;2.38;1.35;;;15.50;58.80;;;;;;5380579;26;20728;-76
2024/04/17 02:14:55;;;;;;;4.78;1.70;;;15.50;58.80;;;;;;5381016;26;20222;-74
2024/04/17 02:17:20;;;;;;;3.05;1.40;;;15.50;58.70;;;;;;5381097;26;20237;-78
2024/04/17 02:19:46;;;;;;;3.30;1.45;;;15.50;58.80;;;;;;5380156;26;20226;-77
2024/04/17 02:22:11;;;;;;;3.90;1.48;;;15.50;58.80;;;;;;5381305;26;20708;-74
2024/04/17 02:24:37;;;;;;;2.03;1.20;;;15.50;58.80;;;;;;5381311;26;20773;-73
2024/04/17 02:27:02;;;;;;;3.15;1.40;;;15.50;58.80;;;;;;5380048;26;20222;-73
2024/04/17 02:29:28;;;;;;;2.88;1.55;;;15.50;58.80;;;;;;5381197;26;20222;-74
2024/04/17 02:31:53;;;;;;;2.47;1.30;;;15.50;58.80;;;;;;5380903;26;20260;-74
2024/04/17 02:34:20;;;;;;;2.55;1.50;;;15.50;58.80;;;;;;5379015;26;20264;-77
2024/04/17 02:36:45;;;;;;;3.03;1.42;;;15.50;58.80;;;;;;5380467;26;20285;-76
2024/04/17 02:39:11;;;;;;;4.97;1.48;;;15.50;58.80;;;;;;5381128;26;20262;-76
2024/04/17 02:41:36;;;;;;;2.75;1.58;;;15.50;58.80;;;;;;5380293;26;20226;-77
2024/04/17 02:44:02;;;;;;;2.38;1.48;;;15.50;58.80;;;;;;5380665;26;20266;-74
2024/04/17 02:46:27;;;;;;;3.70;1.35;;;15.40;58.80;;;;;;5381048;26;20322;-76
2024/04/17 02:48:53;;;;;;;2.35;1.60;;;15.50;58.80;;;;;;5379808;26;20229;-75
2024/04/17 02:51:18;;;;;;;2.75;1.70;;;15.50;58.80;;;;;;5380980;26;20618;-75
2024/04/17 02:53:44;;;;;;;3.20;1.42;;;15.40;58.80;;;;;;5380516;26;20692;-77
2024/04/17 02:56:09;;;;;;;2.50;1.52;;;15.50;58.80;;;;;;5380004;26;20241;-74
2024/04/17 02:58:36;;;;;;;3.60;1.60;;;15.40;58.80;;;;;;5380768;26;20233;-76
2024/04/17 03:01:18;;;;;;;3.45;1.42;;;15.40;58.90;;;;;;5380344;26;20256;-74
2024/04/17 03:03:43;;;;;;;2.85;1.67;;;15.40;58.80;;;;;;5380045;26;20213;-74
2024/04/17 03:06:09;;;;;;;2.58;1.30;;;15.40;58.90;;;;;;5380806;26;20600;-77
2024/04/17 03:08:34;;;;;;;2.72;1.10;;;15.40;58.90;;;;;;5379834;26;20676;-73
2024/04/17 03:11:00;;;;;;;3.05;1.42;;;15.50;58.90;;;;;;5380406;26;20217;-76
2024/04/17 03:13:26;;;;;;;4.25;1.10;;;15.40;58.90;;;;;;5380688;26;20263;-76
2024/04/17 03:15:52;;;;;;;3.22;1.40;;;15.40;58.90;;;;;;5379626;26;20256;-76
2024/04/17 03:18:17;;;;;;;2.53;1.40;;;15.40;58.90;;;;;;5380603;26;20689;-78
2024/04/17 03:20:43;;;;;;;5.47;1.52;;;15.40;58.80;;;;;;5380159;26;20680;-76
2024/04/17 03:23:08;;;;;;;2.47;1.40;;;15.40;58.80;;;;;;5379566;26;20739;-74
2024/04/17 03:25:34;;;;;;;2.17;1.50;;;15.40;58.90;;;;;;5380419;26;20256;-75
2024/04/17 03:27:59;;;;;;;1.70;1.23;;;15.40;58.90;;;;;;5380067;26;20264;-74
2024/04/17 03:30:25;;;;;;;1.67;1.38;;;15.40;58.90;;;;;;5379542;26;20221;-78
2024/04/17 03:32:50;;;;;;;1.73;1.20;;;15.40;58.80;;;;;;5380057;26;20326;-77
2024/04/17 03:35:16;;;;;;;2.30;1.35;;;15.40;58.80;;;;;;5380308;26;20264;-77
2024/04/17 03:37:42;;;;;;;2.55;1.30;;;15.30;58.80;;;;;;5378885;26;20225;-76
2024/04/17 03:40:08;;;;;;;2.05;1.60;;;15.40;58.90;;;;;;5380161;26;20312;-76
2024/04/17 03:42:33;;;;;;;3.13;1.70;;;15.40;58.90;;;;;;5380145;26;20268;-78
2024/04/17 03:44:59;;;;;;;2.30;1.05;;;15.40;58.90;;;;;;5380294;26;21024;-75
2024/04/17 03:47:24;;;;;;;2.42;1.20;;;15.40;58.90;;;;;;5383477;26;20225;-78
2024/04/17 03:49:50;;;;;;;1.83;1.10;;;15.40;58.90;;;;;;5383066;26;20229;-76
2024/04/17 03:52:15;;;;;;;2.65;1.10;;;15.40;58.90;;;;;;5382521;26;20272;-76
2024/04/17 03:54:41;;;;;;;3.15;1.45;;;15.30;58.80;;;;;;5383019;26;20264;-77
2024/04/17 03:57:06;;;;;;;1.80;1.42;;;15.30;58.80;;;;;;5383326;26;20221;-76
2024/04/17 03:59:32;;;;;;;2.50;1.65;;;15.30;58.90;;;;;;5382388;26;20260;-76
2024/04/17 04:01:57;;;;;;;2.97;1.33;;;15.30;58.90;;;;;;5382946;26;20229;-75
2024/04/17 04:04:23;;;;;;;2.15;1.10;;;15.30;58.80;;;;;;5383284;26;20221;-74
2024/04/17 04:06:49;;;;;;;3.97;1.17;;;15.30;58.80;;;;;;5381943;26;20225;-75
2024/04/17 04:09:15;;;;;;;2.78;1.45;;;15.30;58.90;;;;;;5383213;26;20222;-74
2024/04/17 04:11:41;;;;;;;2.17;1.10;;;15.30;58.90;;;;;;5381991;26;20981;-75
2024/04/17 04:14:06;;;;;;;1.73;1.10;;;15.30;58.90;;;;;;5383071;26;20265;-76
2024/04/17 04:16:33;;;;;;;2.65;1.50;;;15.30;58.90;;;;;;5382952;26;20279;-77
2024/04/17 04:18:58;;;;;;;2.03;1.60;;;15.30;58.90;;;;;;5381884;26;20233;-77
2024/04/17 04:21:24;;;;;;;3.08;1.13;;;15.30;58.90;;;;;;5383033;26;20550;-75
2024/04/17 04:23:49;;;;;;;2.60;1.40;;;15.30;58.90;;;;;;5382608;26;20225;-73
2024/04/17 04:26:15;;;;;;;1.73;1.40;;;15.30;58.90;;;;;;5382136;26;20602;-75
2024/04/17 04:28:41;;;;;;;1.92;1.30;;;15.30;58.90;;;;;;5382468;26;20225;-72
2024/04/17 04:31:06;;;;;;;2.88;1.20;;;15.30;58.90;;;;;;5382932;26;20225;-74
2024/04/17 04:33:32;;;;;;;3.05;1.73;;;15.30;58.90;;;;;;5382030;26;20221;-76
2024/04/17 04:35:57;;;;;;;2.00;1.40;;;15.30;58.90;;;;;;5382279;26;20263;-76
2024/04/17 04:38:23;;;;;;;1.67;1.17;;;15.30;58.90;;;;;;5382891;26;20218;-75
2024/04/17 04:40:49;;;;;;;2.28;1.17;;;15.30;58.90;;;;;;5381581;26;20272;-76
2024/04/17 04:43:14;;;;;;;3.15;1.20;;;15.30;58.90;;;;;;5382669;26;20677;-75
2024/04/17 04:45:40;;;;;;;3.13;1.13;;;15.40;58.80;;;;;;5382375;26;20327;-75
2024/04/17 04:48:06;;;;;;;3.08;1.73;;;15.40;58.70;;;;;;5381774;26;20221;-75
2024/04/17 04:50:31;;;;;;;2.25;1.20;;;15.50;58.70;;;;;;5351731;26;20234;-75
2024/04/17 04:52:57;;;;;;;2.13;1.13;;;15.50;58.50;;;;;;5382325;26;20735;-75
2024/04/17 04:55:22;;;;;;;1.58;1.20;;;15.60;58.50;;;;;;5381552;26;20748;-76
2024/04/17 04:57:48;;;;;;;1.95;0.95;;;15.60;58.50;;;;;;5381263;26;20268;-74
2024/04/17 05:00:14;;;;;;;2.83;1.45;;;15.60;58.50;;;;;;5382385;26;20259;-76
2024/04/17 05:02:39;;;;;;;1.90;1.02;;;15.70;58.40;;;;;;5381608;26;20260;-73
2024/04/17 05:05:05;;;;;;;2.78;1.27;;;15.70;58.50;;;;;;5382233;26;20221;-74
2024/04/17 05:07:31;;;;;;;1.15;0.95;;;15.70;58.40;;;;;;5382362;26;20256;-74
2024/04/17 05:09:58;;;;;;;1.00;0.90;;;15.70;58.40;;;;;;5381099;26;20600;-73
2024/04/17 05:12:24;;;;;;;1.90;1.05;;;15.80;58.30;;;;;;5382434;26;20362;-76
2024/04/17 05:14:49;;;;;;;2.13;0.90;;;15.90;58.40;;;;;;5381849;26;20755;-76
2024/04/17 05:17:15;;;;;;;0.82;0.70;;;15.90;58.30;;;;;;5381462;26;20245;-77
2024/04/17 05:19:40;;;;;;;1.77;0.80;;;16.00;58.20;;;;;;5381793;26;20225;-77
2024/04/17 05:22:06;;;;;;;1.50;0.82;;;16.00;58.10;;;;;;5381333;26;20222;-74
2024/04/17 05:24:31;;;;;;;1.17;0.98;;;16.00;58.00;;;;;;5382111;26;20229;-75
2024/04/17 05:26:57;;;;;;;1.58;1.13;;;16.10;58.00;;;;;;5381718;26;20225;-72
2024/04/17 05:29:22;;;;;;;1.15;0.85;;;16.10;57.90;;;;;;5381192;26;20225;-73
2024/04/17 05:31:48;;;;;;;1.13;0.90;;;16.10;57.90;;;;;;5381780;26;20568;-75
2024/04/17 05:34:14;;;;;;;1.30;0.80;;;16.10;57.80;;;;;;5381788;26;20229;-74
2024/04/17 05:36:39;;;;;;;0.60;0.60;;;16.10;57.80;;;;;;5381013;26;20712;-77
2024/04/17 05:39:05;;;;;;;1.33;0.82;;;16.10;57.80;;;;;;5381820;26;20234;-76
2024/04/17 05:41:31;;;;;;;1.75;0.90;;;16.10;57.90;;;;;;5381764;26;20226;-79
2024/04/17 05:43:56;;;;;;;1.90;0.90;;;16.20;57.90;;;;;;5380708;26;20330;-77
2024/04/17 05:46:25;;;;;;;0.98;0.82;;;16.20;57.80;;;;;;5381858;26;20261;-75
2024/04/17 05:48:56;;;;;;;1.83;0.95;;;16.40;57.70;;;;;;5381315;26;20348;-75
2024/04/17 05:51:22;;;;;;;1.50;0.75;;;16.50;57.50;;;;;;5381007;26;20218;-75
2024/04/17 05:53:47;;;;;;;0.65;0.60;;;16.60;57.40;;;;;;5381334;26;20268;-76
2024/04/17 05:56:14;;;;;;;1.63;0.73;;;16.70;57.10;;;;;;5381705;26;20222;-76
2024/04/17 05:58:40;;;;;;;0.80;0.60;;;16.90;56.90;;;;;;5380475;26;20792;-74
2024/04/17 06:01:06;;;;;;;0.57;0.57;;;17.00;56.70;;;;;;5381695;26;20234;-75
2024/04/17 06:03:31;;;;;;;0.93;0.85;;;17.20;56.40;;;;;;5381437;26;20645;-72
2024/04/17 06:05:57;;;;;;;1.17;0.65;;;17.20;56.30;;;;;;5380395;26;20221;-73
2024/04/17 06:08:22;;;;;;;1.42;0.60;;;17.30;56.20;;;;;;5381392;26;20225;-74
2024/04/17 06:10:48;;;;;;;0.93;0.70;;;17.30;56.00;;;;;;5381140;26;20335;-74
2024/04/17 06:13:13;;;;;;;1.25;0.65;;;17.40;55.90;;;;;;5380673;26;20233;-75
2024/04/17 06:15:39;;;;;;;1.25;0.55;;;17.40;55.80;;;;;;5381443;26;20234;-75
2024/04/17 06:18:05;;;;;;;1.05;0.65;;;17.40;55.60;;;;;;5381327;26;20305;-76
2024/04/17 06:20:30;;;;;;;1.27;0.70;;;17.50;55.60;;;;;;5380716;26;20222;-76
2024/04/17 06:22:56;;;;;;;1.02;0.68;;;17.50;55.50;;;;;;5381112;26;20285;-73
2024/04/17 06:25:21;;;;;;;1.00;0.50;;;17.50;55.50;;;;;;5380522;26;20260;-72
2024/04/17 06:27:47;;;;;;;2.28;0.65;;;17.50;55.50;;;;;;5380928;26;20225;-73
2024/04/17 06:30:13;;;;;;;0.82;0.70;;;17.50;55.50;;;;;;5381422;26;20591;-75
2024/04/17 06:32:38;;;;;;;0.50;0.50;;;17.50;55.50;;;;;;5380471;26;20328;-77
2024/04/17 06:35:04;;;;;;;1.30;0.52;;;17.60;55.50;;;;;;5380962;26;20734;-74
2024/04/17 06:37:29;;;;;;;1.67;0.73;;;17.60;55.40;;;;;;5381160;26;20225;-78
2024/04/17 06:39:55;;;;;;;1.52;0.60;;;17.60;55.40;;;;;;5379886;26;20272;-77
2024/04/17 06:42:20;;;;;;;0.65;0.60;;;17.60;55.40;;;;;;5381064;26;20225;-77
2024/04/17 06:44:46;;;;;;;0.57;0.50;;;17.60;55.40;;;;;;5380748;26;20221;-76
2024/04/17 06:47:11;;;;;;;2.17;0.77;;;17.60;55.40;;;;;;5380198;26;20225;-74
2024/04/17 06:49:39;;;;;;;0.77;0.55;;;17.60;55.50;;;;;;5380904;26;20222;-78
2024/04/17 06:52:05;;;;;;;2.55;0.90;;;17.60;55.40;;;;;;5380804;26;20318;-75
2024/04/17 06:54:31;;;;;;;1.13;0.57;;;17.60;55.50;;;;;;5380182;26;20700;-76
2024/04/17 06:56:56;;;;;;;1.23;0.50;;;17.50;55.50;;;;;;5380537;26;20222;-74
2024/04/17 06:59:22;;;;;;;1.02;0.70;;;17.50;55.50;;;;;;5380793;26;20260;-74
2024/04/17 07:01:47;;;;;;;0.73;0.40;;;17.50;55.50;;;;;;5379654;26;20688;-75
2024/04/17 07:04:13;;;;;;;1.02;0.55;;;17.50;55.60;;;;;;5380801;26;20695;-73
2024/04/17 07:06:40;;;;;;;0.60;0.60;;;17.60;55.50;;;;;;5380829;26;20217;-74
2024/04/17 07:09:06;;;;;;;0.73;0.45;;;17.60;55.50;;;;;;5379914;26;20237;-75
2024/04/17 07:11:31;;;;;;;0.85;0.50;;;17.60;55.50;;;;;;5380641;26;20548;-74
2024/04/17 07:13:57;;;;;;;0.50;0.43;;;17.50;55.50;;;;;;5380228;26;20225;-75
2024/04/17 07:16:22;;;;;;;1.55;0.70;;;17.60;55.50;;;;;;5379597;26;20221;-75
2024/04/17 07:18:49;;;;;;;0.45;0.45;;;17.60;55.50;;;;;;5379771;26;20592;-75
2024/04/17 07:21:14;;;;;;;0.50;0.50;;;17.60;55.50;;;;;;5380323;26;20566;-75
2024/04/17 07:23:40;;;;;;;0.75;0.60;;;17.60;55.50;;;;;;5379324;26;20222;-73
2024/04/17 07:26:05;;;;;;;0.52;0.50;;;17.50;55.50;;;;;;5380385;26;20225;-75
2024/04/17 07:28:31;;;;;;;1.00;0.60;;;17.60;55.50;;;;;;5380401;26;20684;-71
2024/04/17 07:30:56;;;;;;;0.80;0.60;;;17.60;55.30;;;;;;5379118;26;20226;-76
2024/04/17 07:33:22;;;;;;;0.90;0.57;;;17.60;55.40;;;;;;5380397;26;20229;-77
2024/04/17 07:35:47;;;;;;;0.70;0.70;;;17.60;55.40;;;;;;5379134;26;20226;-75
2024/04/17 07:38:13;;;;;;;0.68;0.50;;;17.70;55.40;;;;;;5379133;26;20217;-77
2024/04/17 07:40:38;;;;;;;1.27;0.60;;;17.60;55.40;;;;;;5380169;26;20252;-75
2024/04/17 07:43:04;;;;;;;0.57;0.57;;;17.60;55.70;;;;;;5379061;26;20221;-76
2024/04/17 07:45:30;;;;;;;0.90;0.60;;;17.60;55.60;;;;;;5379983;26;20222;-76
2024/04/17 07:47:55;;;;;;;0.82;0.65;;;17.60;55.70;;;;;;5379705;26;20221;-75
2024/04/17 07:50:21;;;;;;;1.77;0.50;;;17.50;55.80;;;;;;5379364;26;20221;-77
2024/04/17 07:52:46;;;;;;;0.88;0.50;;;17.40;56.00;;;;;;5379709;26;20794;-75
2024/04/17 07:55:12;;;;;;;3.03;0.70;;;17.30;56.10;;;;;;5379935;26;20268;-76
2024/04/17 07:57:37;;;;;;;1.02;0.70;;;17.30;56.30;;;;;;5379138;26;20269;-76
2024/04/17 08:00:03;;;;;;;0.73;0.70;;;17.20;56.40;;;;;;5379398;26;20218;-74
2024/04/17 08:02:29;;;;;;;1.85;0.65;;;17.10;56.50;;;;;;5379705;26;20221;-75
2024/04/17 08:04:55;;;;;;;1.05;0.43;;;17.10;56.60;;;;;;5378615;26;20221;-73
2024/04/17 08:07:20;;;;;;;0.52;0.50;;;17.10;56.70;;;;;;5379669;26;20319;-74
2024/04/17 08:09:46;;;;;;;0.40;0.40;;;17.10;56.60;;;;;;5379284;26;20217;-74
2024/04/17 08:12:11;;;;;;;0.80;0.60;;;17.10;56.50;;;;;;5378675;26;20230;-74
2024/04/17 08:14:37;;;;;;;0.57;0.50;;;17.10;56.50;;;;;;5379587;26;20318;-77
2024/04/17 08:17:03;;;;;;;1.45;0.70;;;17.10;56.60;;;;;;5379184;26;20643;-75
2024/04/17 08:19:28;;;;;;;0.57;0.50;;;17.10;56.80;;;;;;5378716;26;20714;-78
2024/04/17 08:21:54;;;;;;;0.80;0.68;;;17.10;56.80;;;;;;5379138;26;20323;-74
2024/04/17 08:24:20;;;;;;;1.42;0.80;;;17.10;56.90;;;;;;5379519;26;20214;-75
2024/04/17 08:26:47;;;;;;;0.80;0.60;;;17.10;56.90;;;;;;5378196;26;20226;-74
2024/04/17 08:29:13;;;;;;;1.70;0.60;;;17.10;56.90;;;;;;5379309;26;20264;-74
2024/04/17 08:31:38;;;;;;;2.10;0.93;;;17.20;56.90;;;;;;5380294;26;20221;-74
2024/04/17 08:34:04;;;;;;;1.00;0.65;;;17.20;56.80;;;;;;5381814;26;20582;-74
2024/04/17 08:36:29;;;;;;;0.73;0.73;;;17.10;56.90;;;;;;5382957;26;20724;-77
2024/04/17 08:38:56;;;;;;;0.70;0.70;;;17.10;57.10;;;;;;5382124;26;20229;-77
2024/04/17 08:41:27;;;;;;;2.72;0.90;;;17.00;57.20;;;;;;5382945;26;20330;-75
2024/04/17 08:43:52;;;;;;;2.20;0.80;;;17.10;57.30;;;;;;5351817;26;20263;-75
2024/04/17 08:46:18;;;;;;;2.60;0.90;;;17.10;57.10;;;;;;5351219;26;21080;-74
2024/04/17 08:48:43;;;;;;;1.38;0.70;;;17.20;56.90;;;;;;5351571;26;20222;-75
2024/04/17 08:51:10;;;;;;;0.63;0.60;;;17.20;57.00;;;;;;5351759;26;20237;-75
2024/04/17 08:53:36;;;;;;;1.50;0.60;;;17.10;57.10;;;;;;5351410;26;20233;-76
2024/04/17 08:56:01;;;;;;;1.42;0.60;;;17.10;57.20;;;;;;5351915;26;20264;-75
2024/04/17 08:58:27;;;;;;;1.00;0.60;;;17.00;57.30;;;;;;5382673;26;20267;-73
2024/04/17 09:00:52;;;;;;;2.10;0.70;;;17.00;57.50;;;;;;5350469;26;20222;-75
2024/04/17 09:03:25;;;;;;;0.90;0.65;;;16.90;57.60;;;;;;5351766;26;20221;-74
2024/04/17 09:05:51;;;;;;;1.67;0.70;;;16.90;57.80;;;;;;5382105;26;20261;-72
2024/04/17 09:08:17;;;;;;;1.20;0.60;;;16.80;57.70;;;;;;5351145;26;20798;-75
2024/04/17 09:10:42;;;;;;;1.13;0.60;;;16.90;58.00;;;;;;5351248;26;20229;-75
2024/04/17 09:13:08;;;;;;;1.25;0.50;;;16.80;57.90;;;;;;5351564;26;20230;-74
2024/04/17 09:15:33;;;;;;;2.28;0.75;;;16.70;57.90;;;;;;5381599;26;20217;-78
2024/04/17 09:17:59;;;;;;;1.27;0.88;;;16.70;58.50;;;;;;5381966;26;20774;-76
2024/04/17 09:20:24;;;;;;;0.82;0.65;;;16.70;57.90;;;;;;5382266;26;20226;-77
2024/04/17 09:22:52;;;;;;;0.75;0.70;;;16.70;58.00;;;;;;5380984;26;20346;-75
2024/04/17 09:25:18;;;;;;;2.50;0.93;;;16.70;58.00;;;;;;5382122;26;20612;-74
2024/04/17 09:27:45;;;;;;;2.17;0.70;;;16.60;57.90;;;;;;5351060;26;20268;-73
2024/04/17 09:30:12;;;;;;;1.08;0.60;;;16.70;57.90;;;;;;5381193;26;20684;-75
2024/04/17 09:32:37;;;;;;;0.93;0.73;;;16.70;57.70;;;;;;5382116;26;20712;-79
2024/04/17 09:35:04;;;;;;;1.13;0.52;;;16.70;57.70;;;;;;5381799;26;20222;-76
2024/04/17 09:37:31;;;;;;;0.98;0.70;;;16.70;57.80;;;;;;5381234;26;20237;-78
2024/04/17 09:40:07;;;;;;;1.33;0.70;;;16.70;57.90;;;;;;5381562;26;20651;-76
2024/04/17 09:42:37;;;;;;;0.90;0.55;;;16.60;57.70;;;;;;5380584;26;20550;-77
2024/04/17 09:45:03;;;;;;;1.15;0.70;;;16.60;57.80;;;;;;5381439;26;20221;-76
2024/04/17 09:47:28;;;;;;;0.75;0.52;;;16.60;57.70;;;;;;5381845;26;20322;-75
2024/04/17 09:49:54;;;;;;;0.90;0.57;;;16.50;57.80;;;;;;5380518;26;20323;-76
2024/04/17 09:52:20;;;;;;;0.80;0.75;;;16.50;57.90;;;;;;5381850;26;20631;-77
2024/04/17 09:54:46;;;;;;;1.17;0.90;;;16.50;57.90;;;;;;5381325;26;20256;-75
2024/04/17 09:57:11;;;;;;;1.20;0.60;;;16.40;57.80;;;;;;5380930;26;20260;-75
2024/04/17 09:59:37;;;;;;;1.90;0.85;;;16.40;57.80;;;;;;5381567;26;20331;-74
2024/04/17 10:02:03;;;;;;;1.90;0.90;;;16.40;57.80;;;;;;5350552;26;20221;-75
2024/04/17 10:04:29;;;;;;;1.63;0.90;;;16.40;57.70;;;;;;5350012;26;20225;-73
2024/04/17 10:06:55;;;;;;;1.33;0.50;;;16.50;57.80;;;;;;5381180;26;20355;-72
2024/04/17 10:09:21;;;;;;;2.22;0.82;;;16.50;58.30;;;;;;5350686;26;20225;-75
2024/04/17 10:11:50;;;;;;;0.55;0.40;;;16.60;57.70;;;;;;5380286;26;20233;-73
2024/04/17 10:14:17;;;;;;;1.15;0.60;;;16.60;57.50;;;;;;5381476;26;20260;-76
2024/04/17 10:16:42;;;;;;;1.15;0.60;;;16.70;57.40;;;;;;5380961;26;20716;-76
2024/04/17 10:19:08;;;;;;;1.20;0.50;;;16.80;57.30;;;;;;5349771;26;20230;-75
2024/04/17 10:21:37;;;;;;;0.52;0.50;;;16.80;57.10;;;;;;5350489;26;20264;-75
2024/04/17 10:24:03;;;;;;;0.98;0.70;;;16.90;57.00;;;;;;5380970;26;20256;-73
2024/04/17 10:26:36;;;;;;;0.77;0.52;;;17.00;57.00;;;;;;5380478;26;20221;-75
2024/04/17 10:29:01;;;;;;;1.63;0.70;;;17.00;57.00;;;;;;5380912;26;20222;-73
2024/04/17 10:31:37;;;;;;;1.42;0.63;;;16.90;57.00;;;;;;5380878;26;20218;-76
2024/04/17 10:34:03;;;;;;;1.65;0.50;;;16.90;57.40;;;;;;5380880;26;20586;-76
2024/04/17 10:36:28;;;;;;;0.90;0.65;;;16.80;57.50;;;;;;5381244;26;20233;-75
2024/04/17 10:38:54;;;;;;;0.68;0.60;;;16.70;57.50;;;;;;5379955;26;20229;-76
2024/04/17 10:41:20;;;;;;;0.88;0.68;;;16.70;57.60;;;;;;5381213;26;20264;-78
2024/04/17 10:43:45;;;;;;;0.60;0.60;;;16.60;57.80;;;;;;5380754;26;20221;-74
2024/04/17 10:46:11;;;;;;;1.77;0.95;;;16.70;57.70;;;;;;5349577;26;21032;-76
2024/04/17 10:48:46;;;;;;;0.95;0.60;;;16.70;57.70;;;;;;5381060;26;20264;-75
2024/04/17 10:51:12;;;;;;;0.68;0.50;;;16.60;57.70;;;;;;5380908;26;20233;-76
2024/04/17 10:53:38;;;;;;;1.80;0.63;;;16.60;57.70;;;;;;5379195;26;20289;-76
2024/04/17 10:56:04;;;;;;;0.82;0.80;;;16.60;57.70;;;;;;5349240;26;20326;-74
2024/04/17 10:58:29;;;;;;;0.60;0.60;;;16.60;57.70;;;;;;5380811;26;20272;-76
2024/04/17 11:01:00;;;;;;;0.70;0.50;;;16.60;57.80;;;;;;5348778;26;20226;-74
2024/04/17 11:03:26;;;;;;;0.70;0.60;;;16.60;57.70;;;;;;5380654;26;20322;-73
2024/04/17 11:05:52;;;;;;;1.13;0.60;;;16.60;57.70;;;;;;5380257;26;20225;-74
2024/04/17 11:08:18;;;;;;;0.60;0.60;;;16.60;57.70;;;;;;5349316;26;20689;-73
2024/04/17 11:10:44;;;;;;;1.20;0.60;;;16.60;57.70;;;;;;5380198;26;20305;-74
2024/04/17 11:13:16;;;;;;;1.02;0.40;;;16.60;57.70;;;;;;5380677;26;20225;-74
2024/04/17 11:15:42;;;;;;;0.50;0.40;;;16.70;57.60;;;;;;5379397;26;20328;-77
2024/04/17 11:18:07;;;;;;;1.45;0.50;;;16.70;57.60;;;;;;5384074;26;20241;-76
2024/04/17 11:20:34;;;;;;;1.00;0.50;;;16.70;57.70;;;;;;5380407;26;20221;-77
2024/04/17 11:23:09;;;;;;;0.57;0.57;;;16.70;57.40;;;;;;5379391;26;20221;-75
2024/04/17 11:25:38;;;;;;;0.52;0.50;;;16.80;57.50;;;;;;5380400;26;20267;-74
2024/04/17 11:28:03;;;;;;;0.60;0.60;;;16.80;57.40;;;;;;5379306;26;20577;-74
2024/04/17 11:30:29;;;;;;;0.70;0.50;;;16.80;57.50;;;;;;5380298;26;20692;-74
2024/04/17 11:32:55;;;;;;;0.93;0.43;;;16.80;57.30;;;;;;5379936;26;20221;-76
2024/04/17 11:35:20;;;;;;;0.60;0.50;;;16.90;57.50;;;;;;5379413;26;20217;-77
2024/04/17 11:37:49;;;;;;;1.25;0.73;;;16.90;57.30;;;;;;5379943;26;20221;-75
2024/04/17 11:40:18;;;;;;;1.13;0.60;;;16.90;57.40;;;;;;5380239;26;20221;-78
2024/04/17 11:42:44;;;;;;;0.85;0.57;;;16.90;57.40;;;;;;5379019;26;20221;-75
2024/04/17 11:45:13;;;;;;;0.65;0.60;;;17.00;57.30;;;;;;5379946;26;20730;-77
2024/04/17 11:47:39;;;;;;;1.15;0.60;;;17.10;57.20;;;;;;5380212;26;20278;-74
2024/04/17 11:50:06;;;;;;;0.63;0.50;;;17.10;57.10;;;;;;5379102;26;20222;-75
2024/04/17 11:52:32;;;;;;;0.57;0.57;;;17.20;57.00;;;;;;5380011;26;20233;-78
2024/04/17 11:54:58;;;;;;;0.60;0.47;;;17.30;56.90;;;;;;5379575;26;20322;-75
2024/04/17 11:57:23;;;;;;;1.45;0.73;;;17.20;56.70;;;;;;5379191;26;20225;-76
2024/04/17 11:59:49;;;;;;;0.50;0.40;;;17.20;56.80;;;;;;5379406;26;20264;-76
2024/04/17 12:02:14;;;;;;;1.08;0.60;;;17.20;57.00;;;;;;5379982;26;20646;-75
2024/04/17 12:04:42;;;;;;;1.00;0.73;;;17.20;57.10;;;;;;5378743;26;20591;-74
2024/04/17 12:07:11;;;;;;;0.77;0.63;;;17.20;56.90;;;;;;5382909;26;20218;-73
2024/04/17 12:09:36;;;;;;;1.13;0.68;;;17.20;56.90;;;;;;5353145;26;20226;-75
2024/04/17 12:12:02;;;;;;;0.50;0.50;;;17.20;57.00;;;;;;5381993;26;20326;-73
2024/04/17 12:14:27;;;;;;;0.50;0.50;;;17.10;57.10;;;;;;5383247;26;20221;-77
2024/04/17 12:16:53;;;;;;;1.10;0.47;;;17.10;57.40;;;;;;5382565;26;20754;-78
2024/04/17 12:19:18;;;;;;;0.57;0.47;;;17.00;57.30;;;;;;5382287;26;20225;-76
2024/04/17 12:21:44;;;;;;;1.45;0.50;;;17.00;57.30;;;;;;5382723;26;20280;-75
2024/04/17 12:24:17;;;;;;;0.70;0.70;;;17.00;57.40;;;;;;5382262;26;20808;-74
2024/04/17 12:26:52;;;;;;;0.70;0.60;;;16.90;57.50;;;;;;5382649;26;20271;-75
2024/04/17 12:29:20;;;;;;;1.15;0.80;;;16.90;57.80;;;;;;5383084;26;20700;-74
2024/04/17 12:31:46;;;;;;;1.00;0.50;;;16.80;57.60;;;;;;5381753;26;20653;-73
2024/04/17 12:34:11;;;;;;;1.10;0.55;;;16.80;57.70;;;;;;5382991;26;20295;-77
2024/04/17 12:36:37;;;;;;;0.88;0.70;;;16.80;57.60;;;;;;5382962;26;20260;-74
2024/04/17 12:39:03;;;;;;;1.10;0.60;;;16.70;57.50;;;;;;5350920;26;20213;-76
2024/04/17 12:41:29;;;;;;;0.57;0.57;;;16.70;57.50;;;;;;5382790;26;20226;-79